sensor_id;sensor_type;location;lat;lon;timestamp;temperature;humidity
11666;DHT22;5889;51.350;6.708;2022-12-18T00:00:45;-3.30;99.90
11666;DHT22;5889;51.350;6.708;2022-12-18T00:03:13;-3.30;99.90
11666;DHT22;5889;51.350;6.708;2022-12-18T00:05:46;-3.30;99.90
11666;DHT22;5889;51.350;6.708;2022-12-18T00:08:14;-3.30;99.90
11666;DHT22;5889;51.350;6.708;2022-12-18T00:10:41;-3.30;99.90
11666;DHT22;5889;51.350;6.708;2022-12-18T00:13:08;-3.40;99.90
11666;DHT22;5889;51.350;6.708;2022-12-18T00:15:35;-3.30;99.90
11666;DHT22;5889;51.350;6.708;2022-12-18T00:18:04;-3.30;99.90
11666;DHT22;5889;51.350;6.708;2022-12-18T00:20:35;-3.40;99.90
11666;DHT22;5889;51.350;6.708;2022-12-18T00:23:02;-3.30;99.90
11666;DHT22;5889;51.350;6.708;2022-12-18T00:25:29;-3.40;99.90
11666;DHT22;5889;51.350;6.708;2022-12-18T00:27:56;-3.40;99.90
11666;DHT22;5889;51.350;6.708;2022-12-18T00:30:23;-3.40;99.90
11666;DHT22;5889;51.350;6.708;2022-12-18T00:32:50;-3.40;99.90
11666;DHT22;5889;51.350;6.708;2022-12-18T00:35:18;-3.40;99.90
11666;DHT22;5889;51.350;6.708;2022-12-18T00:37:45;-3.40;99.90
11666;DHT22;5889;51.350;6.708;2022-12-18T00:40:12;-3.40;99.90
11666;DHT22;5889;51.350;6.708;2022-12-18T00:42:39;-3.40;99.90
11666;DHT22;5889;51.350;6.708;2022-12-18T00:45:23;-3.50;99.90
11666;DHT22;5889;51.350;6.708;2022-12-18T00:47:50;-3.50;99.90
11666;DHT22;5889;51.350;6.708;2022-12-18T00:50:20;-3.50;99.90
11666;DHT22;5889;51.350;6.708;2022-12-18T00:52:50;-3.50;99.90
11666;DHT22;5889;51.350;6.708;2022-12-18T00:55:17;-3.50;99.90
11666;DHT22;5889;51.350;6.708;2022-12-18T00:57:44;-3.50;99.90
11666;DHT22;5889;51.350;6.708;2022-12-18T01:00:13;-3.50;99.90
11666;DHT22;5889;51.350;6.708;2022-12-18T01:02:40;-3.50;99.90
11666;DHT22;5889;51.350;6.708;2022-12-18T01:05:09;-3.50;99.90
11666;DHT22;5889;51.350;6.708;2022-12-18T01:07:38;-3.50;99.90
11666;DHT22;5889;51.350;6.708;2022-12-18T01:10:06;-3.50;99.90
11666;DHT22;5889;51.350;6.708;2022-12-18T01:12:33;-3.40;99.90
11666;DHT22;5889;51.350;6.708;2022-12-18T01:15:00;-3.50;99.90
11666;DHT22;5889;51.350;6.708;2022-12-18T01:17:27;-3.40;99.90
11666;DHT22;5889;51.350;6.708;2022-12-18T01:19:54;-3.40;99.90
11666;DHT22;5889;51.350;6.708;2022-12-18T01:22:21;-3.50;99.90
11666;DHT22;5889;51.350;6.708;2022-12-18T01:24:50;-3.50;99.90
11666;DHT22;5889;51.350;6.708;2022-12-18T01:27:17;-3.50;99.90
11666;DHT22;5889;51.350;6.708;2022-12-18T01:29:44;-3.50;99.90
11666;DHT22;5889;51.350;6.708;2022-12-18T01:32:11;-3.50;99.90
11666;DHT22;5889;51.350;6.708;2022-12-18T01:34:38;-3.50;99.90
11666;DHT22;5889;51.350;6.708;2022-12-18T01:37:05;-3.50;99.90
11666;DHT22;5889;51.350;6.708;2022-12-18T01:39:33;-3.60;99.90
11666;DHT22;5889;51.350;6.708;2022-12-18T01:42:02;-3.50;99.90
11666;DHT22;5889;51.350;6.708;2022-12-18T01:45:00;-3.50;99.90
11666;DHT22;5889;51.350;6.708;2022-12-18T01:47:34;-3.50;99.90
11666;DHT22;5889;51.350;6.708;2022-12-18T01:50:04;-3.50;99.90
11666;DHT22;5889;51.350;6.708;2022-12-18T01:52:33;-3.50;99.90
11666;DHT22;5889;51.350;6.708;2022-12-18T01:55:02;-3.50;99.90
11666;DHT22;5889;51.350;6.708;2022-12-18T01:57:31;-3.50;99.90
11666;DHT22;5889;51.350;6.708;2022-12-18T02:00:03;-3.50;99.90
11666;DHT22;5889;51.350;6.708;2022-12-18T02:02:34;-3.50;99.90
11666;DHT22;5889;51.350;6.708;2022-12-18T02:05:02;-3.50;99.90
11666;DHT22;5889;51.350;6.708;2022-12-18T02:07:37;-3.50;99.90
11666;DHT22;5889;51.350;6.708;2022-12-18T02:10:08;-3.50;99.90
11666;DHT22;5889;51.350;6.708;2022-12-18T02:12:44;-3.50;99.90
11666;DHT22;5889;51.350;6.708;2022-12-18T02:15:16;-3.50;99.90
11666;DHT22;5889;51.350;6.708;2022-12-18T02:17:49;-3.50;99.90
11666;DHT22;5889;51.350;6.708;2022-12-18T02:20:21;-3.50;99.90
11666;DHT22;5889;51.350;6.708;2022-12-18T02:23:01;-3.50;99.90
11666;DHT22;5889;51.350;6.708;2022-12-18T02:25:52;-3.50;99.90
11666;DHT22;5889;51.350;6.708;2022-12-18T02:28:20;-3.50;99.90
11666;DHT22;5889;51.350;6.708;2022-12-18T02:30:51;-3.50;99.90
11666;DHT22;5889;51.350;6.708;2022-12-18T02:33:21;-3.50;99.90
11666;DHT22;5889;51.350;6.708;2022-12-18T02:35:48;-3.50;99.90
11666;DHT22;5889;51.350;6.708;2022-12-18T02:38:16;-3.50;99.90
11666;DHT22;5889;51.350;6.708;2022-12-18T02:40:43;-3.50;99.90
11666;DHT22;5889;51.350;6.708;2022-12-18T02:43:14;-3.50;99.90
11666;DHT22;5889;51.350;6.708;2022-12-18T02:45:46;-3.50;99.90
11666;DHT22;5889;51.350;6.708;2022-12-18T02:48:14;-3.50;99.90
11666;DHT22;5889;51.350;6.708;2022-12-18T02:50:45;-3.50;99.90
11666;DHT22;5889;51.350;6.708;2022-12-18T02:53:22;-3.50;99.90
11666;DHT22;5889;51.350;6.708;2022-12-18T02:55:59;-3.50;99.90
11666;DHT22;5889;51.350;6.708;2022-12-18T02:58:35;-3.50;99.90
11666;DHT22;5889;51.350;6.708;2022-12-18T03:01:11;-3.50;99.90
11666;DHT22;5889;51.350;6.708;2022-12-18T03:03:44;-3.50;99.90
11666;DHT22;5889;51.350;6.708;2022-12-18T03:06:17;-3.50;99.90
11666;DHT22;5889;51.350;6.708;2022-12-18T03:08:48;-3.50;99.90
11666;DHT22;5889;51.350;6.708;2022-12-18T03:11:16;-3.50;99.90
11666;DHT22;5889;51.350;6.708;2022-12-18T03:14:06;-3.50;99.90
11666;DHT22;5889;51.350;6.708;2022-12-18T03:16:34;-3.50;99.90
11666;DHT22;5889;51.350;6.708;2022-12-18T03:19:05;-3.50;99.90
11666;DHT22;5889;51.350;6.708;2022-12-18T03:21:36;-3.50;99.90
11666;DHT22;5889;51.350;6.708;2022-12-18T03:24:06;-3.50;99.90
11666;DHT22;5889;51.350;6.708;2022-12-18T03:26:35;-3.50;99.90
11666;DHT22;5889;51.350;6.708;2022-12-18T03:29:08;-3.40;99.90
11666;DHT22;5889;51.350;6.708;2022-12-18T03:31:39;-3.40;99.90
11666;DHT22;5889;51.350;6.708;2022-12-18T03:34:09;-3.40;99.90
11666;DHT22;5889;51.350;6.708;2022-12-18T03:36:39;-3.40;99.90
11666;DHT22;5889;51.350;6.708;2022-12-18T03:39:06;-3.40;99.90
11666;DHT22;5889;51.350;6.708;2022-12-18T03:41:37;-3.30;99.90
11666;DHT22;5889;51.350;6.708;2022-12-18T03:44:12;-3.40;99.90
11666;DHT22;5889;51.350;6.708;2022-12-18T03:46:44;-3.30;99.90
11666;DHT22;5889;51.350;6.708;2022-12-18T03:49:20;-3.30;99.90
11666;DHT22;5889;51.350;6.708;2022-12-18T03:51:54;-3.30;99.90
11666;DHT22;5889;51.350;6.708;2022-12-18T03:54:25;-3.30;99.90
11666;DHT22;5889;51.350;6.708;2022-12-18T03:56:56;-3.30;99.90
11666;DHT22;5889;51.350;6.708;2022-12-18T03:59:27;-3.30;99.90
11666;DHT22;5889;51.350;6.708;2022-12-18T04:01:56;-3.30;99.90
11666;DHT22;5889;51.350;6.708;2022-12-18T04:04:26;-3.30;99.90
11666;DHT22;5889;51.350;6.708;2022-12-18T04:06:54;-3.30;99.90
11666;DHT22;5889;51.350;6.708;2022-12-18T04:09:21;-3.30;99.90
11666;DHT22;5889;51.350;6.708;2022-12-18T04:11:48;-3.30;99.90
11666;DHT22;5889;51.350;6.708;2022-12-18T04:14:15;-3.40;99.90
11666;DHT22;5889;51.350;6.708;2022-12-18T04:16:44;-3.40;99.90
11666;DHT22;5889;51.350;6.708;2022-12-18T04:19:11;-3.40;99.90
11666;DHT22;5889;51.350;6.708;2022-12-18T04:21:37;-3.40;99.90
11666;DHT22;5889;51.350;6.708;2022-12-18T04:24:05;-3.40;99.90
11666;DHT22;5889;51.350;6.708;2022-12-18T04:26:32;-3.40;99.90
11666;DHT22;5889;51.350;6.708;2022-12-18T04:28:58;-3.40;99.90
11666;DHT22;5889;51.350;6.708;2022-12-18T04:31:25;-3.40;99.90
11666;DHT22;5889;51.350;6.708;2022-12-18T04:33:54;-3.40;99.90
11666;DHT22;5889;51.350;6.708;2022-12-18T04:36:21;-3.40;99.90
11666;DHT22;5889;51.350;6.708;2022-12-18T04:38:48;-3.40;99.90
11666;DHT22;5889;51.350;6.708;2022-12-18T04:41:15;-3.40;99.90
11666;DHT22;5889;51.350;6.708;2022-12-18T04:43:42;-3.40;99.90
11666;DHT22;5889;51.350;6.708;2022-12-18T04:46:09;-3.40;99.90
11666;DHT22;5889;51.350;6.708;2022-12-18T04:48:36;-3.40;99.90
11666;DHT22;5889;51.350;6.708;2022-12-18T04:51:05;-3.40;99.90
11666;DHT22;5889;51.350;6.708;2022-12-18T04:53:32;-3.50;99.90
11666;DHT22;5889;51.350;6.708;2022-12-18T04:56:04;-3.50;99.90
11666;DHT22;5889;51.350;6.708;2022-12-18T04:58:32;-3.50;99.90
11666;DHT22;5889;51.350;6.708;2022-12-18T05:00:59;-3.60;99.90
11666;DHT22;5889;51.350;6.708;2022-12-18T05:03:26;-3.60;99.90
11666;DHT22;5889;51.350;6.708;2022-12-18T05:05:53;-3.60;99.90
11666;DHT22;5889;51.350;6.708;2022-12-18T05:08:21;-3.60;99.90
11666;DHT22;5889;51.350;6.708;2022-12-18T05:10:48;-3.60;99.90
11666;DHT22;5889;51.350;6.708;2022-12-18T05:13:15;-3.60;99.90
11666;DHT22;5889;51.350;6.708;2022-12-18T05:15:42;-3.60;99.90
11666;DHT22;5889;51.350;6.708;2022-12-18T05:18:09;-3.60;99.90
11666;DHT22;5889;51.350;6.708;2022-12-18T05:20:36;-3.60;99.90
11666;DHT22;5889;51.350;6.708;2022-12-18T05:23:03;-3.60;99.90
11666;DHT22;5889;51.350;6.708;2022-12-18T05:25:31;-3.60;99.90
11666;DHT22;5889;51.350;6.708;2022-12-18T05:27:58;-3.60;99.90
11666;DHT22;5889;51.350;6.708;2022-12-18T05:30:25;-3.60;99.90
11666;DHT22;5889;51.350;6.708;2022-12-18T05:32:53;-3.60;99.90
11666;DHT22;5889;51.350;6.708;2022-12-18T05:35:20;-3.60;99.90
11666;DHT22;5889;51.350;6.708;2022-12-18T05:37:47;-3.60;99.90
11666;DHT22;5889;51.350;6.708;2022-12-18T05:40:14;-3.60;99.90
11666;DHT22;5889;51.350;6.708;2022-12-18T05:42:42;-3.60;99.90
11666;DHT22;5889;51.350;6.708;2022-12-18T05:45:09;-3.60;99.90
11666;DHT22;5889;51.350;6.708;2022-12-18T05:47:36;-3.60;99.90
11666;DHT22;5889;51.350;6.708;2022-12-18T05:50:04;-3.60;99.90
11666;DHT22;5889;51.350;6.708;2022-12-18T05:52:32;-3.50;99.90
11666;DHT22;5889;51.350;6.708;2022-12-18T05:54:59;-3.50;99.90
11666;DHT22;5889;51.350;6.708;2022-12-18T05:57:26;-3.50;99.90
11666;DHT22;5889;51.350;6.708;2022-12-18T05:59:54;-3.50;99.90
11666;DHT22;5889;51.350;6.708;2022-12-18T06:02:21;-3.50;99.90
11666;DHT22;5889;51.350;6.708;2022-12-18T06:04:48;-3.50;99.90
11666;DHT22;5889;51.350;6.708;2022-12-18T06:07:15;-3.50;99.90
11666;DHT22;5889;51.350;6.708;2022-12-18T06:09:42;-3.60;99.90
11666;DHT22;5889;51.350;6.708;2022-12-18T06:12:09;-3.50;99.90
11666;DHT22;5889;51.350;6.708;2022-12-18T06:14:36;-3.50;99.90
11666;DHT22;5889;51.350;6.708;2022-12-18T06:17:04;-3.50;99.90
11666;DHT22;5889;51.350;6.708;2022-12-18T06:19:31;-3.50;99.90
11666;DHT22;5889;51.350;6.708;2022-12-18T06:21:58;-3.60;99.90
11666;DHT22;5889;51.350;6.708;2022-12-18T06:24:25;-3.50;99.90
11666;DHT22;5889;51.350;6.708;2022-12-18T06:26:52;-3.60;99.90
11666;DHT22;5889;51.350;6.708;2022-12-18T06:29:19;-3.60;99.90
11666;DHT22;5889;51.350;6.708;2022-12-18T06:31:46;-3.60;99.90
11666;DHT22;5889;51.350;6.708;2022-12-18T06:34:14;-3.60;99.90
11666;DHT22;5889;51.350;6.708;2022-12-18T06:36:41;-3.60;99.90
11666;DHT22;5889;51.350;6.708;2022-12-18T06:39:08;-3.60;99.90
11666;DHT22;5889;51.350;6.708;2022-12-18T06:41:35;-3.60;99.90
11666;DHT22;5889;51.350;6.708;2022-12-18T06:44:02;-3.60;99.90
11666;DHT22;5889;51.350;6.708;2022-12-18T06:46:29;-3.60;99.90
11666;DHT22;5889;51.350;6.708;2022-12-18T06:48:57;-3.60;99.90
11666;DHT22;5889;51.350;6.708;2022-12-18T06:51:25;-3.60;99.90
11666;DHT22;5889;51.350;6.708;2022-12-18T06:53:52;-3.60;99.90
11666;DHT22;5889;51.350;6.708;2022-12-18T06:56:19;-3.60;99.90
11666;DHT22;5889;51.350;6.708;2022-12-18T06:58:46;-3.60;99.90
11666;DHT22;5889;51.350;6.708;2022-12-18T07:01:13;-3.60;99.90
11666;DHT22;5889;51.350;6.708;2022-12-18T07:03:41;-3.70;99.90
11666;DHT22;5889;51.350;6.708;2022-12-18T07:06:13;-3.60;99.90
11666;DHT22;5889;51.350;6.708;2022-12-18T07:08:42;-3.70;99.90
11666;DHT22;5889;51.350;6.708;2022-12-18T07:11:09;-3.70;99.90
11666;DHT22;5889;51.350;6.708;2022-12-18T07:13:42;-3.60;99.90
11666;DHT22;5889;51.350;6.708;2022-12-18T07:16:10;-3.60;99.90
11666;DHT22;5889;51.350;6.708;2022-12-18T07:18:38;-3.60;99.90
11666;DHT22;5889;51.350;6.708;2022-12-18T07:21:05;-3.60;99.90
11666;DHT22;5889;51.350;6.708;2022-12-18T07:23:33;-3.60;99.90
11666;DHT22;5889;51.350;6.708;2022-12-18T07:26:03;-3.60;99.90
11666;DHT22;5889;51.350;6.708;2022-12-18T07:28:31;-3.60;99.90
11666;DHT22;5889;51.350;6.708;2022-12-18T07:30:58;-3.60;99.90
11666;DHT22;5889;51.350;6.708;2022-12-18T07:33:28;-3.50;99.90
11666;DHT22;5889;51.350;6.708;2022-12-18T07:35:55;-3.50;99.90
11666;DHT22;5889;51.350;6.708;2022-12-18T07:38:22;-3.50;99.90
11666;DHT22;5889;51.350;6.708;2022-12-18T07:40:49;-3.50;99.90
11666;DHT22;5889;51.350;6.708;2022-12-18T07:43:19;-3.50;99.90
11666;DHT22;5889;51.350;6.708;2022-12-18T07:45:49;-3.40;99.90
11666;DHT22;5889;51.350;6.708;2022-12-18T07:48:19;-3.40;99.90
11666;DHT22;5889;51.350;6.708;2022-12-18T07:50:46;-3.40;99.90
11666;DHT22;5889;51.350;6.708;2022-12-18T07:53:13;-3.30;99.90
11666;DHT22;5889;51.350;6.708;2022-12-18T07:55:40;-3.30;99.90
11666;DHT22;5889;51.350;6.708;2022-12-18T07:58:09;-3.20;99.90
11666;DHT22;5889;51.350;6.708;2022-12-18T08:00:38;-3.20;99.90
11666;DHT22;5889;51.350;6.708;2022-12-18T08:03:05;-3.20;99.90
11666;DHT22;5889;51.350;6.708;2022-12-18T08:05:32;-3.10;99.90
11666;DHT22;5889;51.350;6.708;2022-12-18T08:07:59;-3.00;99.90
11666;DHT22;5889;51.350;6.708;2022-12-18T08:10:26;-3.00;99.90
11666;DHT22;5889;51.350;6.708;2022-12-18T08:12:53;-2.90;99.90
11666;DHT22;5889;51.350;6.708;2022-12-18T08:15:20;-2.90;99.90
11666;DHT22;5889;51.350;6.708;2022-12-18T08:17:48;-2.80;99.90
11666;DHT22;5889;51.350;6.708;2022-12-18T08:20:15;-2.80;99.90
11666;DHT22;5889;51.350;6.708;2022-12-18T08:22:43;-2.70;99.90
11666;DHT22;5889;51.350;6.708;2022-12-18T08:25:11;-2.60;99.90
11666;DHT22;5889;51.350;6.708;2022-12-18T08:27:38;-2.60;99.90
11666;DHT22;5889;51.350;6.708;2022-12-18T08:30:06;-2.50;99.90
11666;DHT22;5889;51.350;6.708;2022-12-18T08:32:33;-2.40;99.90
11666;DHT22;5889;51.350;6.708;2022-12-18T08:35:03;-2.40;99.90
11666;DHT22;5889;51.350;6.708;2022-12-18T08:37:30;-2.30;99.90
11666;DHT22;5889;51.350;6.708;2022-12-18T08:39:58;-2.20;99.90
11666;DHT22;5889;51.350;6.708;2022-12-18T08:42:25;-2.20;99.90
11666;DHT22;5889;51.350;6.708;2022-12-18T08:45:10;-2.10;99.90
11666;DHT22;5889;51.350;6.708;2022-12-18T08:47:39;-2.00;99.90
11666;DHT22;5889;51.350;6.708;2022-12-18T08:50:09;-1.90;99.90
11666;DHT22;5889;51.350;6.708;2022-12-18T08:52:37;-1.90;99.90
11666;DHT22;5889;51.350;6.708;2022-12-18T08:55:05;-1.80;99.90
11666;DHT22;5889;51.350;6.708;2022-12-18T08:57:32;-1.70;99.90
11666;DHT22;5889;51.350;6.708;2022-12-18T08:59:59;-1.70;99.90
11666;DHT22;5889;51.350;6.708;2022-12-18T09:02:26;-1.70;99.90
11666;DHT22;5889;51.350;6.708;2022-12-18T09:04:53;-1.60;99.90
11666;DHT22;5889;51.350;6.708;2022-12-18T09:07:21;-1.50;99.90
11666;DHT22;5889;51.350;6.708;2022-12-18T09:09:48;-1.50;99.90
11666;DHT22;5889;51.350;6.708;2022-12-18T09:12:15;-1.50;99.90
11666;DHT22;5889;51.350;6.708;2022-12-18T09:14:43;-1.40;99.90
11666;DHT22;5889;51.350;6.708;2022-12-18T09:17:09;-1.40;99.90
11666;DHT22;5889;51.350;6.708;2022-12-18T09:19:36;-1.40;99.90
11666;DHT22;5889;51.350;6.708;2022-12-18T09:22:04;-1.40;99.90
11666;DHT22;5889;51.350;6.708;2022-12-18T09:24:32;-1.40;99.90
11666;DHT22;5889;51.350;6.708;2022-12-18T09:26:59;-1.30;99.90
11666;DHT22;5889;51.350;6.708;2022-12-18T09:29:26;-1.30;99.90
11666;DHT22;5889;51.350;6.708;2022-12-18T09:31:54;-1.20;99.90
11666;DHT22;5889;51.350;6.708;2022-12-18T09:34:21;-1.10;99.90
11666;DHT22;5889;51.350;6.708;2022-12-18T09:36:49;-1.00;99.90
11666;DHT22;5889;51.350;6.708;2022-12-18T09:39:17;-0.90;99.90
11666;DHT22;5889;51.350;6.708;2022-12-18T09:41:47;-0.90;99.90
11666;DHT22;5889;51.350;6.708;2022-12-18T09:44:24;-0.80;99.90
11666;DHT22;5889;51.350;6.708;2022-12-18T09:47:05;-0.70;99.90
11666;DHT22;5889;51.350;6.708;2022-12-18T09:49:39;-0.70;99.90
11666;DHT22;5889;51.350;6.708;2022-12-18T09:52:11;-0.70;99.90
11666;DHT22;5889;51.350;6.708;2022-12-18T09:54:41;-0.60;99.90
11666;DHT22;5889;51.350;6.708;2022-12-18T09:57:14;-0.60;99.90
11666;DHT22;5889;51.350;6.708;2022-12-18T09:59:42;-0.60;99.90
11666;DHT22;5889;51.350;6.708;2022-12-18T10:02:19;-0.50;99.90
11666;DHT22;5889;51.350;6.708;2022-12-18T10:04:54;-0.40;99.90
11666;DHT22;5889;51.350;6.708;2022-12-18T10:07:28;-0.40;99.90
11666;DHT22;5889;51.350;6.708;2022-12-18T10:10:01;-0.30;99.90
11666;DHT22;5889;51.350;6.708;2022-12-18T10:12:35;-0.30;99.90
11666;DHT22;5889;51.350;6.708;2022-12-18T10:15:10;-0.30;99.90
11666;DHT22;5889;51.350;6.708;2022-12-18T10:17:42;-0.20;99.90
11666;DHT22;5889;51.350;6.708;2022-12-18T10:20:15;-0.10;99.90
11666;DHT22;5889;51.350;6.708;2022-12-18T10:22:50;-0.10;99.90
11666;DHT22;5889;51.350;6.708;2022-12-18T10:25:23;0.00;99.90
11666;DHT22;5889;51.350;6.708;2022-12-18T10:27:56;0.00;99.90
11666;DHT22;5889;51.350;6.708;2022-12-18T10:30:24;0.10;99.90
11666;DHT22;5889;51.350;6.708;2022-12-18T10:32:52;0.10;99.90
11666;DHT22;5889;51.350;6.708;2022-12-18T10:35:21;0.10;99.90
11666;DHT22;5889;51.350;6.708;2022-12-18T10:38:07;0.20;99.90
11666;DHT22;5889;51.350;6.708;2022-12-18T10:40:52;0.30;99.90
11666;DHT22;5889;51.350;6.708;2022-12-18T10:43:23;0.40;99.90
11666;DHT22;5889;51.350;6.708;2022-12-18T10:46:03;0.40;99.90
11666;DHT22;5889;51.350;6.708;2022-12-18T10:48:34;0.50;99.90
11666;DHT22;5889;51.350;6.708;2022-12-18T10:51:02;0.60;99.90
11666;DHT22;5889;51.350;6.708;2022-12-18T10:53:32;0.60;99.90
11666;DHT22;5889;51.350;6.708;2022-12-18T10:56:00;0.70;99.90
11666;DHT22;5889;51.350;6.708;2022-12-18T10:58:31;0.70;99.90
11666;DHT22;5889;51.350;6.708;2022-12-18T11:01:07;0.70;99.90
11666;DHT22;5889;51.350;6.708;2022-12-18T11:03:37;0.70;99.90
11666;DHT22;5889;51.350;6.708;2022-12-18T11:06:07;0.80;99.90
11666;DHT22;5889;51.350;6.708;2022-12-18T11:08:35;0.90;99.90
11666;DHT22;5889;51.350;6.708;2022-12-18T11:11:03;0.90;99.90
11666;DHT22;5889;51.350;6.708;2022-12-18T11:13:32;1.00;99.90
11666;DHT22;5889;51.350;6.708;2022-12-18T11:15:59;1.00;99.90
11666;DHT22;5889;51.350;6.708;2022-12-18T11:18:29;1.10;99.90
11666;DHT22;5889;51.350;6.708;2022-12-18T11:20:58;1.10;99.90
11666;DHT22;5889;51.350;6.708;2022-12-18T11:23:27;1.20;99.90
11666;DHT22;5889;51.350;6.708;2022-12-18T11:25:56;1.20;99.90
11666;DHT22;5889;51.350;6.708;2022-12-18T11:28:33;1.30;99.90
11666;DHT22;5889;51.350;6.708;2022-12-18T11:31:24;1.30;99.90
11666;DHT22;5889;51.350;6.708;2022-12-18T11:34:03;1.40;99.90
11666;DHT22;5889;51.350;6.708;2022-12-18T11:36:34;1.40;99.90
11666;DHT22;5889;51.350;6.708;2022-12-18T11:39:10;1.50;99.90
11666;DHT22;5889;51.350;6.708;2022-12-18T11:41:43;1.50;99.90
11666;DHT22;5889;51.350;6.708;2022-12-18T11:44:38;1.50;99.90
11666;DHT22;5889;51.350;6.708;2022-12-18T11:47:12;1.50;99.90
11666;DHT22;5889;51.350;6.708;2022-12-18T11:49:41;1.50;99.90
11666;DHT22;5889;51.350;6.708;2022-12-18T11:52:18;1.50;99.90
11666;DHT22;5889;51.350;6.708;2022-12-18T11:54:50;1.60;99.90
11666;DHT22;5889;51.350;6.708;2022-12-18T11:57:27;1.50;99.90
11666;DHT22;5889;51.350;6.708;2022-12-18T12:00:04;1.60;99.90
11666;DHT22;5889;51.350;6.708;2022-12-18T12:02:46;1.60;99.90
11666;DHT22;5889;51.350;6.708;2022-12-18T12:05:31;1.60;99.90
11666;DHT22;5889;51.350;6.708;2022-12-18T12:08:07;1.70;99.90
11666;DHT22;5889;51.350;6.708;2022-12-18T12:10:46;1.70;99.90
11666;DHT22;5889;51.350;6.708;2022-12-18T12:13:29;1.70;99.90
11666;DHT22;5889;51.350;6.708;2022-12-18T12:16:07;1.80;99.90
11666;DHT22;5889;51.350;6.708;2022-12-18T12:18:49;1.80;99.90
11666;DHT22;5889;51.350;6.708;2022-12-18T12:21:24;1.70;99.90
11666;DHT22;5889;51.350;6.708;2022-12-18T12:24:01;1.70;99.90
11666;DHT22;5889;51.350;6.708;2022-12-18T12:26:35;1.70;99.90
11666;DHT22;5889;51.350;6.708;2022-12-18T12:29:18;1.70;99.90
11666;DHT22;5889;51.350;6.708;2022-12-18T12:32:00;1.60;99.90
11666;DHT22;5889;51.350;6.708;2022-12-18T12:34:36;1.70;99.90
11666;DHT22;5889;51.350;6.708;2022-12-18T12:37:14;1.70;99.90
11666;DHT22;5889;51.350;6.708;2022-12-18T12:39:46;1.70;99.90
11666;DHT22;5889;51.350;6.708;2022-12-18T12:42:20;1.70;99.90
11666;DHT22;5889;51.350;6.708;2022-12-18T12:45:14;1.60;99.90
11666;DHT22;5889;51.350;6.708;2022-12-18T12:47:46;1.60;99.90
11666;DHT22;5889;51.350;6.708;2022-12-18T12:50:18;1.60;99.90
11666;DHT22;5889;51.350;6.708;2022-12-18T12:52:50;1.60;99.90
11666;DHT22;5889;51.350;6.708;2022-12-18T12:55:19;1.60;99.90
11666;DHT22;5889;51.350;6.708;2022-12-18T12:57:54;1.60;99.90
11666;DHT22;5889;51.350;6.708;2022-12-18T13:00:22;1.60;99.90
11666;DHT22;5889;51.350;6.708;2022-12-18T13:02:55;1.60;99.90
11666;DHT22;5889;51.350;6.708;2022-12-18T13:05:33;1.60;99.90
11666;DHT22;5889;51.350;6.708;2022-12-18T13:08:03;1.60;99.90
11666;DHT22;5889;51.350;6.708;2022-12-18T13:10:35;1.60;99.90
11666;DHT22;5889;51.350;6.708;2022-12-18T13:13:04;1.70;99.90
11666;DHT22;5889;51.350;6.708;2022-12-18T13:15:34;1.70;99.90
11666;DHT22;5889;51.350;6.708;2022-12-18T13:18:16;1.70;99.90
11666;DHT22;5889;51.350;6.708;2022-12-18T13:20:47;1.70;99.90
11666;DHT22;5889;51.350;6.708;2022-12-18T13:23:31;1.70;99.90
11666;DHT22;5889;51.350;6.708;2022-12-18T13:25:58;1.70;99.90
11666;DHT22;5889;51.350;6.708;2022-12-18T13:28:51;1.70;99.90
11666;DHT22;5889;51.350;6.708;2022-12-18T13:34:19;1.60;99.90
11666;DHT22;5889;51.350;6.708;2022-12-18T13:36:48;1.60;99.90
11666;DHT22;5889;51.350;6.708;2022-12-18T13:39:31;1.60;99.90
11666;DHT22;5889;51.350;6.708;2022-12-18T13:45:45;1.60;99.90
11666;DHT22;5889;51.350;6.708;2022-12-18T13:48:19;1.50;99.90
11666;DHT22;5889;51.350;6.708;2022-12-18T13:50:55;1.50;99.90
11666;DHT22;5889;51.350;6.708;2022-12-18T13:53:29;1.50;99.90
11666;DHT22;5889;51.350;6.708;2022-12-18T13:55:57;1.40;99.90
11666;DHT22;5889;51.350;6.708;2022-12-18T13:58:24;1.40;99.90
11666;DHT22;5889;51.350;6.708;2022-12-18T14:00:51;1.40;99.90
11666;DHT22;5889;51.350;6.708;2022-12-18T14:03:21;1.40;99.90
11666;DHT22;5889;51.350;6.708;2022-12-18T14:05:54;1.40;99.90
11666;DHT22;5889;51.350;6.708;2022-12-18T14:08:22;1.40;99.90
11666;DHT22;5889;51.350;6.708;2022-12-18T14:10:51;1.40;99.90
11666;DHT22;5889;51.350;6.708;2022-12-18T14:13:24;1.30;99.90
11666;DHT22;5889;51.350;6.708;2022-12-18T14:15:53;1.30;99.90
11666;DHT22;5889;51.350;6.708;2022-12-18T14:18:23;1.30;99.90
11666;DHT22;5889;51.350;6.708;2022-12-18T14:20:53;1.30;99.90
11666;DHT22;5889;51.350;6.708;2022-12-18T14:23:29;1.30;99.90
11666;DHT22;5889;51.350;6.708;2022-12-18T14:25:58;1.30;99.90
11666;DHT22;5889;51.350;6.708;2022-12-18T14:28:25;1.30;99.90
11666;DHT22;5889;51.350;6.708;2022-12-18T14:30:53;1.30;99.90
11666;DHT22;5889;51.350;6.708;2022-12-18T14:33:22;1.20;99.90
11666;DHT22;5889;51.350;6.708;2022-12-18T14:35:55;1.20;99.90
11666;DHT22;5889;51.350;6.708;2022-12-18T14:38:26;1.20;99.90
11666;DHT22;5889;51.350;6.708;2022-12-18T14:40:59;1.20;99.90
11666;DHT22;5889;51.350;6.708;2022-12-18T14:43:27;1.20;99.90
11666;DHT22;5889;51.350;6.708;2022-12-18T14:45:55;1.20;99.90
11666;DHT22;5889;51.350;6.708;2022-12-18T14:48:35;1.20;99.90
11666;DHT22;5889;51.350;6.708;2022-12-18T14:51:05;1.20;99.90
11666;DHT22;5889;51.350;6.708;2022-12-18T14:53:36;1.20;99.90
11666;DHT22;5889;51.350;6.708;2022-12-18T14:56:14;1.20;99.90
11666;DHT22;5889;51.350;6.708;2022-12-18T14:58:45;1.10;99.90
11666;DHT22;5889;51.350;6.708;2022-12-18T15:01:19;1.10;99.90
11666;DHT22;5889;51.350;6.708;2022-12-18T15:03:46;1.10;99.90
11666;DHT22;5889;51.350;6.708;2022-12-18T15:06:21;1.10;99.90
11666;DHT22;5889;51.350;6.708;2022-12-18T15:08:50;1.10;99.90
11666;DHT22;5889;51.350;6.708;2022-12-18T15:11:33;1.00;99.90
11666;DHT22;5889;51.350;6.708;2022-12-18T15:14:22;1.00;99.90
11666;DHT22;5889;51.350;6.708;2022-12-18T15:16:51;1.00;99.90
11666;DHT22;5889;51.350;6.708;2022-12-18T15:19:20;0.90;99.90
11666;DHT22;5889;51.350;6.708;2022-12-18T15:21:48;1.00;99.90
11666;DHT22;5889;51.350;6.708;2022-12-18T15:24:18;1.00;99.90
11666;DHT22;5889;51.350;6.708;2022-12-18T15:26:48;1.00;99.90
11666;DHT22;5889;51.350;6.708;2022-12-18T15:29:18;0.90;99.90
11666;DHT22;5889;51.350;6.708;2022-12-18T15:32:01;0.90;99.90
11666;DHT22;5889;51.350;6.708;2022-12-18T15:34:29;0.90;99.90
11666;DHT22;5889;51.350;6.708;2022-12-18T15:36:56;0.90;99.90
11666;DHT22;5889;51.350;6.708;2022-12-18T15:39:23;0.90;99.90
11666;DHT22;5889;51.350;6.708;2022-12-18T15:41:51;0.90;99.90
11666;DHT22;5889;51.350;6.708;2022-12-18T15:44:36;0.90;99.90
11666;DHT22;5889;51.350;6.708;2022-12-18T15:47:04;0.90;99.90
11666;DHT22;5889;51.350;6.708;2022-12-18T15:49:34;0.80;99.90
11666;DHT22;5889;51.350;6.708;2022-12-18T15:52:02;0.90;99.90
11666;DHT22;5889;51.350;6.708;2022-12-18T15:54:29;0.90;99.90
11666;DHT22;5889;51.350;6.708;2022-12-18T15:57:14;0.90;99.90
11666;DHT22;5889;51.350;6.708;2022-12-18T15:59:51;0.90;99.90
11666;DHT22;5889;51.350;6.708;2022-12-18T16:02:20;0.90;99.90
11666;DHT22;5889;51.350;6.708;2022-12-18T16:04:48;0.80;99.90
11666;DHT22;5889;51.350;6.708;2022-12-18T16:07:15;0.80;99.90
11666;DHT22;5889;51.350;6.708;2022-12-18T16:09:42;0.80;99.90
11666;DHT22;5889;51.350;6.708;2022-12-18T16:12:17;0.80;99.90
11666;DHT22;5889;51.350;6.708;2022-12-18T16:14:45;0.80;99.90
11666;DHT22;5889;51.350;6.708;2022-12-18T16:17:13;0.80;99.90
11666;DHT22;5889;51.350;6.708;2022-12-18T16:19:42;0.80;99.90